createdAt,value
2018-08-14T00:00:30.256Z,99466.75
2018-08-14T00:03:00.856Z,99462.49
2018-08-14T00:05:30.857Z,99466.98
2018-08-14T00:08:01.392Z,99465.99
2018-08-14T00:10:31.820Z,99474.52
2018-08-14T00:13:02.111Z,99485.77
2018-08-14T00:15:32.015Z,99485.81
2018-08-14T00:18:02.403Z,99486.54
2018-08-14T00:20:32.627Z,99492.69
2018-08-14T00:23:02.620Z,99493.49
2018-08-14T00:25:32.593Z,99506.99
2018-08-14T00:28:02.801Z,99511.11
2018-08-14T00:30:34.405Z,99506.70
2018-08-14T00:33:04.950Z,99512.39
2018-08-14T00:35:34.932Z,99507.97
2018-08-14T00:38:04.976Z,99512.39
2018-08-14T00:40:34.821Z,99517.42
2018-08-14T00:43:06.353Z,99510.06
2018-08-14T00:45:36.748Z,99511.51
2018-08-14T00:48:07.621Z,99509.38
2018-08-14T00:50:38.494Z,99510.86
2018-08-14T00:53:13.551Z,99505.37
2018-08-14T00:55:50.145Z,99508.08
2018-08-14T00:58:20.118Z,99514.47
2018-08-14T01:00:50.061Z,99514.19
2018-08-14T01:06:15.881Z,99508.65
2018-08-14T01:08:55.438Z,99510.03
2018-08-14T01:11:25.652Z,99507.91
2018-08-14T01:13:55.632Z,99518.09
2018-08-14T01:16:25.813Z,99518.19
2018-08-14T01:18:56.405Z,99519.69
2018-08-14T01:21:26.530Z,99524.41
2018-08-14T01:24:00.223Z,99516.65
2018-08-14T01:26:30.060Z,99521.85
2018-08-14T01:28:59.944Z,99520.09
2018-08-14T01:31:30.026Z,99515.03
2018-08-14T01:33:59.928Z,99516.50
2018-08-14T01:36:29.886Z,99515.27
2018-08-14T01:38:59.818Z,99516.33
2018-08-14T01:41:29.757Z,99518.25
2018-08-14T01:43:59.536Z,99516.91
2018-08-14T01:46:29.684Z,99517.86
2018-08-14T01:48:59.729Z,99515.07
2018-08-14T01:51:29.556Z,99515.38
2018-08-14T01:53:59.794Z,99513.91
2018-08-14T01:56:29.608Z,99506.02
2018-08-14T01:58:59.894Z,99507.66
2018-08-14T02:01:29.932Z,99507.73
2018-08-14T02:04:00.381Z,99508.31
2018-08-14T02:06:30.897Z,99514.70
2018-08-14T02:09:01.737Z,99523.83
2018-08-14T02:11:31.694Z,99529.85
2018-08-14T02:14:01.769Z,99534.67
2018-08-14T02:16:32.207Z,99544.90
2018-08-14T02:19:02.144Z,99545.29
2018-08-14T02:21:31.991Z,99543.78
2018-08-14T02:24:02.036Z,99543.74
2018-08-14T02:26:31.961Z,99544.80
2018-08-14T02:29:01.974Z,99542.00
2018-08-14T02:31:32.320Z,99552.98
2018-08-14T02:34:02.439Z,99553.86
2018-08-14T02:36:32.655Z,99550.51
2018-08-14T02:39:03.038Z,99544.50
2018-08-14T02:41:33.283Z,99548.63
2018-08-14T02:44:03.555Z,99542.98
2018-08-14T02:46:33.749Z,99546.03
2018-08-14T02:49:03.616Z,99543.34
2018-08-14T02:51:33.599Z,99547.62
2018-08-14T02:54:03.686Z,99536.52
2018-08-14T02:56:36.840Z,99536.73
2018-08-14T02:59:06.732Z,99543.20
2018-08-14T03:01:36.617Z,99535.55
2018-08-14T03:04:06.980Z,99516.98
2018-08-14T03:06:36.883Z,99523.54
2018-08-14T03:09:11.086Z,99526.69
2018-08-14T03:11:41.446Z,99531.60
2018-08-14T03:14:11.815Z,99531.83
2018-08-14T03:16:41.744Z,99535.55
2018-08-14T03:19:11.999Z,99537.58
2018-08-14T03:21:42.497Z,99539.50
2018-08-14T03:24:12.375Z,99547.63
2018-08-14T03:26:42.402Z,99539.31
2018-08-14T03:29:12.669Z,99544.52
2018-08-14T03:31:43.172Z,99538.96
2018-08-14T03:34:13.121Z,99539.89
2018-08-14T03:36:43.035Z,99534.58
2018-08-14T03:39:14.208Z,99536.25
2018-08-14T03:41:44.329Z,99540.65
2018-08-14T03:44:14.207Z,99536.89
2018-08-14T03:46:44.153Z,99536.37
2018-08-14T03:49:13.976Z,99538.04
2018-08-14T03:51:43.820Z,99539.97
2018-08-14T03:54:13.824Z,99536.69
2018-08-14T03:56:43.737Z,99540.74
2018-08-14T03:59:14.143Z,99548.27
2018-08-14T04:01:43.946Z,99558.59
2018-08-14T04:04:14.265Z,99579.73
2018-08-14T04:06:44.674Z,99583.36
2018-08-14T04:09:15.315Z,99585.31
2018-08-14T04:11:46.080Z,99586.62
2018-08-14T04:14:17.691Z,99584.51
2018-08-14T04:16:48.249Z,99579.05
2018-08-14T04:19:19.193Z,99564.45
2018-08-14T04:21:50.077Z,99567.09
2018-08-14T04:24:21.202Z,99574.96
2018-08-14T04:26:51.997Z,99573.98
2018-08-14T04:29:23.995Z,99570.42
2018-08-14T04:31:53.900Z,99567.82
2018-08-14T04:34:24.425Z,99563.78
2018-08-14T04:36:55.078Z,99560.31
2018-08-14T04:39:26.066Z,99565.45
2018-08-14T04:41:57.058Z,99567.64
2018-08-14T04:44:28.638Z,99574.60
2018-08-14T04:46:59.293Z,99580.73
2018-08-14T04:49:30.089Z,99572.64
2018-08-14T04:52:01.078Z,99577.34
2018-08-14T04:54:32.085Z,99590.06
2018-08-14T04:57:03.029Z,99632.28
2018-08-14T04:59:34.406Z,99671.80
2018-08-14T05:02:05.077Z,99684.46
2018-08-14T05:04:36.400Z,99676.47
2018-08-14T05:07:07.402Z,99612.46
2018-08-14T05:09:38.548Z,99522.30
2018-08-14T05:12:09.171Z,99527.19
2018-08-14T05:14:40.306Z,99555.78
2018-08-14T05:17:11.068Z,99585.91
2018-08-14T05:19:42.110Z,99605.78
2018-08-14T05:22:13.060Z,99626.09
2018-08-14T05:24:44.101Z,99628.37
2018-08-14T05:27:15.057Z,99642.80
2018-08-14T05:29:46.009Z,99645.79
2018-08-14T05:32:17.288Z,99649.44
2018-08-14T05:34:49.134Z,99644.03
2018-08-14T05:37:18.973Z,99646.77
2018-08-14T05:39:50.563Z,99650.22
2018-08-14T05:42:21.163Z,99650.69
2018-08-14T05:44:52.152Z,99661.84
2018-08-14T05:47:23.055Z,99655.69
2018-08-14T05:49:54.029Z,99657.28
2018-08-14T05:52:25.303Z,99665.34
2018-08-14T05:54:56.175Z,99672.83
2018-08-14T05:57:26.944Z,99677.00
2018-08-14T05:59:58.401Z,99675.77
2018-08-14T06:02:28.928Z,99678.69
2018-08-14T06:05:00.758Z,99676.61
2018-08-14T06:07:31.261Z,99670.34
2018-08-14T06:10:02.223Z,99678.66
2018-08-14T06:12:32.890Z,99679.53
2018-08-14T06:15:04.603Z,99691.20
2018-08-14T06:17:35.252Z,99688.25
2018-08-14T06:20:07.672Z,99692.84
2018-08-14T06:22:38.067Z,99689.45
2018-08-14T06:25:08.801Z,99690.69
2018-08-14T06:27:39.675Z,99690.52
2018-08-14T06:30:17.257Z,99698.02
2018-08-14T06:32:53.596Z,99708.23
2018-08-14T06:35:23.740Z,99715.98
2018-08-14T06:37:53.640Z,99718.92
2018-08-14T06:40:23.771Z,99723.61
2018-08-14T06:42:53.718Z,99725.97
2018-08-14T06:45:23.688Z,99728.88
2018-08-14T06:47:53.696Z,99734.73
2018-08-14T06:50:24.245Z,99729.80
2018-08-14T06:52:54.838Z,99739.73
2018-08-14T06:55:24.695Z,99736.11
2018-08-14T06:57:54.659Z,99734.88
2018-08-14T07:00:25.104Z,99746.48
2018-08-14T07:02:55.566Z,99747.52
2018-08-14T07:05:26.123Z,99763.72
2018-08-14T07:07:55.909Z,99750.97
2018-08-14T07:10:26.537Z,99760.21
2018-08-14T07:12:57.570Z,99761.61
2018-08-14T07:15:28.496Z,99766.58
2018-08-14T07:17:59.179Z,99774.38
2018-08-14T07:20:30.669Z,99774.00
2018-08-14T07:23:01.784Z,99780.66
2018-08-14T07:25:32.361Z,99772.40
2018-08-14T07:28:03.505Z,99774.37
2018-08-14T07:30:34.113Z,99767.88
2018-08-14T07:33:05.639Z,99781.89
2018-08-14T07:35:43.332Z,99782.24
2018-08-14T07:38:13.679Z,99781.01
2018-08-14T07:40:43.677Z,99788.36
2018-08-14T07:43:13.781Z,99794.64
2018-08-14T07:45:43.773Z,99781.36
2018-08-14T07:48:13.791Z,99788.34
2018-08-14T07:50:44.082Z,99790.41
2018-08-14T07:53:14.067Z,99785.66
2018-08-14T07:55:43.856Z,99796.15
2018-08-14T07:58:14.461Z,99787.26
2018-08-14T08:00:45.025Z,99785.75
2018-08-14T08:03:16.387Z,99786.55
2018-08-14T08:05:47.084Z,99793.45
2018-08-14T08:08:18.316Z,99791.94
2018-08-14T08:10:49.662Z,99795.09
2018-08-14T08:13:20.288Z,99791.81
2018-08-14T08:15:50.968Z,99789.63
2018-08-14T08:18:22.471Z,99793.67
2018-08-14T08:20:53.470Z,99784.58
2018-08-14T08:23:24.409Z,99799.81
2018-08-14T08:25:55.144Z,99794.69
2018-08-14T08:28:26.552Z,99797.05
2018-08-14T08:30:57.055Z,99798.81
2018-08-14T08:33:28.512Z,99794.60
2018-08-14T08:35:59.835Z,99800.28
2018-08-14T08:38:32.039Z,99802.11
2018-08-14T08:41:01.880Z,99805.77
2018-08-14T08:43:31.991Z,99800.19
2018-08-14T08:46:02.258Z,99809.24
2018-08-14T08:48:32.964Z,99803.72
2018-08-14T08:51:03.149Z,99797.91
2018-08-14T08:53:34.210Z,99797.55
2018-08-14T08:56:05.156Z,99805.53
2018-08-14T08:58:36.084Z,99795.81
2018-08-14T09:01:07.606Z,99792.66
2018-08-14T09:03:38.652Z,99795.63
2018-08-14T09:06:09.446Z,99791.89
2018-08-14T09:08:40.172Z,99794.17
2018-08-14T09:11:12.056Z,99795.66
2018-08-14T09:13:42.198Z,99792.34
2018-08-14T09:16:13.184Z,99793.63
2018-08-14T09:18:44.143Z,99788.86
2018-08-14T09:21:14.943Z,99798.70
2018-08-14T09:23:46.562Z,99795.61
2018-08-14T09:26:17.006Z,99795.70
2018-08-14T09:28:48.357Z,99790.09
2018-08-14T09:31:18.897Z,99788.81
2018-08-14T09:33:49.541Z,99790.03
2018-08-14T09:36:20.149Z,99782.20
2018-08-14T09:38:51.159Z,99785.81
2018-08-14T09:41:22.711Z,99792.67
2018-08-14T09:43:53.337Z,99785.81
2018-08-14T09:46:23.966Z,99778.36
2018-08-14T09:48:55.576Z,99779.28
2018-08-14T09:51:26.152Z,99781.26
2018-08-14T09:53:57.267Z,99783.15
2018-08-14T09:56:28.126Z,99782.45
2018-08-14T09:58:59.177Z,99789.38
2018-08-14T10:02:33.027Z,99792.67
2018-08-14T10:05:07.900Z,99789.13
2018-08-14T10:07:42.845Z,99779.75
2018-08-14T10:10:15.526Z,99785.63
2018-08-14T10:12:45.725Z,99792.30
2018-08-14T10:15:16.072Z,99785.48
2018-08-14T10:17:45.932Z,99793.37
2018-08-14T10:20:15.766Z,99777.83
2018-08-14T10:22:45.904Z,99787.62
2018-08-14T10:25:15.957Z,99782.34
2018-08-14T10:27:45.970Z,99780.22
2018-08-14T10:30:17.184Z,99768.84
2018-08-14T10:32:47.198Z,99767.88
2018-08-14T10:35:17.158Z,99769.44
2018-08-14T10:37:47.026Z,99761.53
2018-08-14T10:40:17.011Z,99756.55
2018-08-14T10:42:47.004Z,99753.03
2018-08-14T10:45:19.129Z,99754.53
2018-08-14T10:47:49.157Z,99746.21
2018-08-14T10:50:22.581Z,99742.22
2018-08-14T10:52:52.778Z,99745.86
2018-08-14T10:55:22.678Z,99742.94
2018-08-14T10:57:52.696Z,99742.41
2018-08-14T11:00:25.983Z,99743.69
2018-08-14T11:02:56.376Z,99751.52
2018-08-14T11:05:26.672Z,99747.66
2018-08-14T11:07:57.015Z,99749.48
2018-08-14T11:10:29.817Z,99759.05
2018-08-14T11:13:00.168Z,99758.02
2018-08-14T11:15:29.959Z,99759.77
2018-08-14T11:17:59.901Z,99756.55
2018-08-14T11:20:29.870Z,99767.52
2018-08-14T11:23:01.506Z,99755.04
2018-08-14T11:25:31.678Z,99766.77
2018-08-14T11:28:01.608Z,99740.05
2018-08-14T11:30:31.693Z,99769.17
2018-08-14T11:33:02.008Z,99773.64
2018-08-14T11:35:36.941Z,99769.70
2018-08-14T11:38:06.891Z,99768.62
2018-08-14T11:40:36.720Z,99760.75
2018-08-14T11:43:06.886Z,99758.25
2018-08-14T11:45:36.725Z,99769.39
2018-08-14T11:48:07.112Z,99768.87
2018-08-14T11:50:37.077Z,99767.97
2018-08-14T11:53:07.142Z,99770.41
2018-08-14T11:55:37.020Z,99773.06
2018-08-14T11:58:07.606Z,99779.02
2018-08-14T12:00:37.821Z,99775.98
2018-08-14T12:03:09.013Z,99779.77
2018-08-14T12:05:39.091Z,99777.02
2018-08-14T12:08:09.054Z,99780.26
2018-08-14T12:10:38.953Z,99778.63
2018-08-14T12:13:08.891Z,99777.02
2018-08-14T12:15:40.943Z,99778.66
2018-08-14T12:18:10.968Z,99780.33
2018-08-14T12:20:40.794Z,99780.41
2018-08-14T12:23:10.672Z,99768.84
2018-08-14T12:25:40.626Z,99759.97
2018-08-14T12:28:10.859Z,99767.88
2018-08-14T12:30:41.100Z,99771.39
2018-08-14T12:33:10.945Z,99769.76
2018-08-14T12:35:40.922Z,99769.98
2018-08-14T12:38:10.816Z,99764.73
2018-08-14T12:40:40.656Z,99771.34
2018-08-14T12:43:10.661Z,99771.34
2018-08-14T12:45:40.605Z,99767.69
2018-08-14T12:48:10.707Z,99769.25
2018-08-14T12:50:40.659Z,99769.84
2018-08-14T12:53:10.562Z,99765.09
2018-08-14T12:55:41.056Z,99766.69
2018-08-14T12:58:10.908Z,99766.97
2018-08-14T13:00:40.835Z,99770.99
2018-08-14T13:03:11.027Z,99770.77
2018-08-14T13:05:41.086Z,99760.73
2018-08-14T13:08:11.018Z,99759.91
2018-08-14T13:10:40.817Z,99762.06
2018-08-14T13:13:10.762Z,99756.34
2018-08-14T13:15:40.901Z,99754.19
2018-08-14T13:18:12.709Z,99762.66
2018-08-14T13:20:44.431Z,99756.47
2018-08-14T13:23:16.124Z,99751.25
2018-08-14T13:25:46.000Z,99749.24
2018-08-14T13:28:15.831Z,99743.91
2018-08-14T13:30:45.700Z,99737.23
2018-08-14T13:33:15.741Z,99748.48
2018-08-14T13:35:45.638Z,99737.73
2018-08-14T13:38:15.887Z,99742.50
2018-08-14T13:40:45.716Z,99738.25
2018-08-14T13:43:15.621Z,99729.08
2018-08-14T13:45:45.524Z,99731.54
2018-08-14T13:48:15.556Z,99727.19
2018-08-14T13:50:45.945Z,99732.37
2018-08-14T13:53:15.974Z,99723.10
2018-08-14T13:55:46.025Z,99727.48
2018-08-14T13:58:15.799Z,99727.76
2018-08-14T14:00:46.264Z,99732.92
2018-08-14T14:03:16.379Z,99730.75
2018-08-14T14:05:46.323Z,99734.84
2018-08-14T14:08:16.920Z,99733.98
2018-08-14T14:10:46.740Z,99730.47
2018-08-14T14:13:16.612Z,99734.80
2018-08-14T14:15:47.201Z,99728.25
2018-08-14T14:18:17.141Z,99738.88
2018-08-14T14:20:47.171Z,99745.92
2018-08-14T14:23:17.816Z,99740.20
2018-08-14T14:25:47.699Z,99736.42
2018-08-14T14:28:17.777Z,99743.23
2018-08-14T14:30:47.849Z,99729.89
2018-08-14T14:33:17.875Z,99725.54
2018-08-14T14:35:47.897Z,99730.98
2018-08-14T14:38:18.114Z,99729.85
2018-08-14T14:40:48.029Z,99732.04
2018-08-14T14:43:18.069Z,99735.51
2018-08-14T14:45:48.065Z,99733.33
2018-08-14T14:48:19.761Z,99730.08
2018-08-14T14:50:50.223Z,99725.80
2018-08-14T14:53:21.024Z,99725.27
2018-08-14T14:55:52.721Z,99722.52
2018-08-14T15:11:09.235Z,99727.97
2018-08-14T15:13:39.138Z,99730.98
2018-08-14T15:16:09.358Z,99724.44
2018-08-14T15:18:39.312Z,99722.33
2018-08-14T15:21:09.196Z,99715.79
2018-08-14T15:23:39.606Z,99724.22
2018-08-14T15:26:09.475Z,99719.59
2018-08-14T15:28:57.958Z,99717.68
2018-08-14T15:31:28.272Z,99705.67
2018-08-14T15:33:58.844Z,99705.17
2018-08-14T15:36:29.653Z,99719.56
2018-08-14T15:39:01.214Z,99711.66
2018-08-14T15:41:31.557Z,99717.93
2018-08-14T15:44:01.442Z,99723.93
2018-08-14T15:46:31.376Z,99726.63
2018-08-14T15:49:01.106Z,99723.35
2018-08-14T15:51:31.508Z,99725.53
2018-08-14T15:54:01.441Z,99720.65
2018-08-14T15:56:31.917Z,99708.39
2018-08-14T15:59:02.244Z,99710.86
2018-08-14T16:01:34.554Z,99710.87
2018-08-14T16:04:12.048Z,99714.96
2018-08-14T16:06:42.464Z,99718.23
2018-08-14T16:09:15.591Z,99710.05
2018-08-14T16:11:46.226Z,99714.95
2018-08-14T16:14:16.555Z,99708.97
2018-08-14T16:16:46.627Z,99717.13
2018-08-14T16:19:17.716Z,99720.13
2018-08-14T16:21:47.600Z,99719.86
2018-08-14T16:24:19.266Z,99721.48
2018-08-14T16:26:49.380Z,99721.76
2018-08-14T16:29:19.301Z,99716.30
2018-08-14T16:31:49.344Z,99726.64
2018-08-14T16:34:19.220Z,99722.55
2018-08-14T16:36:49.161Z,99718.47
2018-08-14T16:39:19.167Z,99709.48
2018-08-14T16:41:49.164Z,99716.58
2018-08-14T16:44:19.087Z,99721.47
2018-08-14T16:46:49.518Z,99717.95
2018-08-14T16:49:19.434Z,99721.73
2018-08-14T16:51:49.310Z,99725.28
2018-08-14T16:54:19.175Z,99724.48
2018-08-14T16:56:49.056Z,99719.02
2018-08-14T16:59:19.134Z,99725.56
2018-08-14T17:01:49.083Z,99732.64
2018-08-14T17:04:19.057Z,99727.20
2018-08-14T17:06:52.702Z,99731.52
2018-08-14T17:09:22.656Z,99731.50
2018-08-14T17:11:53.538Z,99733.97
2018-08-14T17:14:23.388Z,99737.77
2018-08-14T17:16:53.651Z,99738.58
2018-08-14T17:19:33.399Z,99739.95
2018-08-14T17:22:03.875Z,99742.13
2018-08-14T17:24:33.744Z,99740.48
2018-08-14T17:27:03.841Z,99741.04
2018-08-14T17:29:34.269Z,99746.76
2018-08-14T17:32:04.346Z,99751.64
2018-08-14T17:34:34.405Z,99745.38
2018-08-14T17:37:04.344Z,99748.08
2018-08-14T17:39:34.725Z,99751.89
2018-08-14T17:42:04.778Z,99756.47
2018-08-14T17:44:35.440Z,99750.19
2018-08-14T17:47:05.395Z,99755.89
2018-08-14T17:49:35.554Z,99757.76
2018-08-14T17:52:05.781Z,99763.16
2018-08-14T17:54:36.108Z,99766.95
2018-08-14T17:57:06.355Z,99768.03
2018-08-14T17:59:36.971Z,99771.83
2018-08-14T18:02:07.156Z,99775.25
2018-08-14T18:04:37.400Z,99777.05
2018-08-14T18:07:07.547Z,99783.81
2018-08-14T18:09:37.503Z,99783.25
2018-08-14T18:12:07.597Z,99790.54
2018-08-14T18:14:37.821Z,99793.22
2018-08-14T18:17:07.820Z,99801.30
2018-08-14T18:19:37.934Z,99800.98
2018-08-14T18:22:08.527Z,99804.63
2018-08-14T18:24:39.222Z,99811.05
2018-08-14T18:27:09.100Z,99822.70
2018-08-14T18:29:39.268Z,99822.70
2018-08-14T18:32:09.117Z,99829.67
2018-08-14T18:34:39.266Z,99835.01
2018-08-14T18:37:09.111Z,99824.04
2018-08-14T18:39:39.037Z,99837.67
2018-08-14T18:42:09.075Z,99837.15
2018-08-14T18:44:39.152Z,99839.86
2018-08-14T18:47:09.120Z,99849.87
2018-08-14T18:49:39.069Z,99852.30
2018-08-14T18:52:09.504Z,99854.73
2018-08-14T18:54:39.474Z,99858.52
2018-08-14T18:57:09.378Z,99859.82
2018-08-14T18:59:39.290Z,99855.70
2018-08-14T19:02:09.624Z,99864.05
2018-08-14T19:04:39.802Z,99865.25
2018-08-14T19:07:10.071Z,99870.56
2018-08-14T19:09:41.215Z,99869.14
2018-08-14T19:12:16.969Z,99877.69
2018-08-14T19:14:47.197Z,99879.77
2018-08-14T19:17:17.114Z,99892.98
2018-08-14T19:19:47.107Z,99886.64
2018-08-14T19:22:17.178Z,99888.40
2018-08-14T19:24:47.898Z,99886.41
2018-08-14T19:27:18.972Z,99898.80
2018-08-14T19:29:49.121Z,99905.22
2018-08-14T19:32:19.171Z,99911.86
2018-08-14T19:34:49.143Z,99915.22
2018-08-14T19:37:19.374Z,99912.88
2018-08-14T19:39:49.420Z,99918.47
2018-08-14T19:42:19.370Z,99918.41
2018-08-14T19:44:49.479Z,99922.77
2018-08-14T19:47:19.375Z,99921.18
2018-08-14T19:49:49.780Z,99916.56
2018-08-14T19:52:20.104Z,99923.34
2018-08-14T19:54:50.023Z,99929.73
2018-08-14T19:57:20.271Z,99933.43
2018-08-14T19:59:51.253Z,99929.77
2018-08-14T20:02:21.202Z,99930.06
2018-08-14T20:04:51.323Z,99932.48
2018-08-14T20:07:22.658Z,99936.05
2018-08-14T20:09:52.952Z,99941.27
2018-08-14T20:12:23.473Z,99935.07
2018-08-14T20:14:53.482Z,99941.84
2018-08-14T20:17:23.296Z,99937.55
2018-08-14T20:19:53.617Z,99945.67
2018-08-14T20:22:23.498Z,99946.45
2018-08-14T20:24:53.265Z,99953.45
2018-08-14T20:27:23.290Z,99951.81
2018-08-14T20:29:53.166Z,99953.42
2018-08-14T20:32:23.150Z,99953.94
2018-08-14T20:34:53.626Z,99956.65
2018-08-14T20:37:23.458Z,99950.66
2018-08-14T20:39:54.370Z,99952.02
2018-08-14T20:42:24.831Z,99953.85
2018-08-14T20:44:55.253Z,99959.75
2018-08-14T20:47:25.198Z,99953.99
2018-08-14T20:49:55.073Z,99957.16
2018-08-14T20:52:25.086Z,99953.58
2018-08-14T20:54:55.004Z,99955.91
2018-08-14T20:57:25.216Z,99962.00
2018-08-14T20:59:55.067Z,99954.33
2018-08-14T21:02:24.985Z,99958.00
2018-08-14T21:04:55.226Z,99967.86
2018-08-14T21:07:25.109Z,99964.41
2018-08-14T21:09:55.174Z,99967.27
2018-08-14T21:12:30.369Z,99963.14
2018-08-14T21:15:00.501Z,99971.55
2018-08-14T21:17:30.321Z,99971.84
2018-08-14T21:20:00.118Z,99965.05
2018-08-14T21:22:30.298Z,99972.00
2018-08-14T21:25:00.171Z,99977.87
2018-08-14T21:27:30.289Z,99976.75
2018-08-14T21:30:00.158Z,99982.12
2018-08-14T21:32:30.110Z,99988.01
2018-08-14T21:35:00.077Z,99982.78
2018-08-14T21:37:30.075Z,99987.54
2018-08-14T21:40:00.320Z,99992.84
2018-08-14T21:42:30.573Z,99999.97
2018-08-14T21:45:00.951Z,100002.05
2018-08-14T21:47:30.932Z,100001.38
2018-08-14T21:50:01.114Z,100000.86
2018-08-14T21:52:30.991Z,100006.37
2018-08-14T21:55:00.803Z,100009.26
2018-08-14T21:57:30.678Z,100009.47
2018-08-14T22:00:00.446Z,100011.80
2018-08-14T22:02:31.235Z,100022.94
2018-08-14T22:05:01.601Z,100019.22
2018-08-14T22:07:31.692Z,100024.34
2018-08-14T22:10:01.925Z,100020.83
2018-08-14T22:12:31.770Z,100027.69
2018-08-14T22:15:02.114Z,100025.60
2018-08-14T22:17:31.896Z,100024.56
2018-08-14T22:20:02.915Z,100022.74
2018-08-14T22:22:33.018Z,100021.55
2018-08-14T22:25:02.818Z,100030.30
2018-08-14T22:27:33.248Z,100022.91
2018-08-14T22:30:04.048Z,100034.15
2018-08-14T22:32:34.862Z,100027.86
2018-08-14T22:35:05.950Z,100029.36
2018-08-14T22:37:36.578Z,100028.22
2018-08-14T22:40:08.125Z,100021.33
2018-08-14T22:42:39.398Z,100040.50
2018-08-14T22:45:11.264Z,100038.25
2018-08-14T22:47:42.145Z,100033.02
2018-08-14T22:50:12.293Z,100038.31
2018-08-14T22:52:43.012Z,100045.50
2018-08-14T22:55:13.774Z,100042.14
2018-08-14T22:57:45.125Z,100037.41
2018-08-14T23:00:17.629Z,100041.38
2018-08-14T23:02:47.626Z,100047.22
2018-08-14T23:05:18.155Z,100043.33
2018-08-14T23:07:49.029Z,100045.12
2018-08-14T23:10:19.829Z,100043.38
2018-08-14T23:12:50.908Z,100042.47
2018-08-14T23:15:21.749Z,100046.14
2018-08-14T23:17:53.162Z,100043.02
2018-08-14T23:20:24.103Z,100045.86
2018-08-14T23:22:55.016Z,100056.17
2018-08-14T23:25:25.894Z,100060.72
2018-08-14T23:27:56.778Z,100070.79
2018-08-14T23:30:27.757Z,100067.49
2018-08-14T23:32:59.180Z,100063.72
2018-08-14T23:35:29.966Z,100062.04
2018-08-14T23:38:00.913Z,100062.77
2018-08-14T23:40:31.742Z,100060.64
2018-08-14T23:43:02.886Z,100062.84
2018-08-14T23:45:33.704Z,100067.41
2018-08-14T23:48:05.641Z,100070.11
2018-08-14T23:50:36.062Z,100071.86
2018-08-14T23:53:07.074Z,100064.73
2018-08-14T23:55:37.810Z,100067.30
2018-08-14T23:58:09.105Z,100070.10
